Time;durP1;ratioP1;P1;durP2;ratioP2;P2;SDS_P1;SDS_P2;PMS_P1;PMS_P2;Temp;Humidity;BMP_temperature;BMP_pressure;BME280_temperature;BME280_humidity;BME280_pressure;Samples;Min_cycle;Max_cycle;Signal;HPM_P1;HPM_P2
2022/12/09 00:01:47;;;;;;;;;50.25;35.25;;;;;5.26;75.03;100045.25;5096773;27;45390;-61
2022/12/09 00:04:13;;;;;;;;;46.00;39.75;;;;;5.42;75.41;100066.56;5080025;27;45252;-63
2022/12/09 00:06:38;;;;;;;;;23.25;22.75;;;;;5.46;75.68;100074.25;5089009;27;45215;-61
2022/12/09 00:09:03;;;;;;;;;50.25;41.50;;;;;5.39;74.91;100056.16;5077538;27;45358;-63
2022/12/09 00:11:29;;;;;;;;;46.00;38.75;;;;;5.33;75.07;100068.66;5070934;27;45330;-62
2022/12/09 00:13:56;;;;;;;;;52.75;42.25;;;;;5.37;75.07;100069.41;5096221;27;45623;-63
2022/12/09 00:16:22;;;;;;;;;57.75;42.50;;;;;5.36;75.20;100067.69;5096409;27;45621;-61
2022/12/09 00:18:49;;;;;;;;;51.50;44.00;;;;;5.46;75.50;100070.75;5078562;27;45448;-63
2022/12/09 00:21:21;;;;;;;;;44.50;40.25;;;;;5.43;75.06;100063.00;5097066;27;45397;-62
2022/12/09 00:23:48;;;;;;;;;49.25;39.00;;;;;5.39;74.48;100061.41;5085379;27;45457;-63
2022/12/09 00:26:14;;;;;;;;;50.25;37.00;;;;;5.37;75.07;100068.53;5090783;27;46226;-63
2022/12/09 00:28:39;;;;;;;;;47.75;41.25;;;;;5.22;75.46;100060.38;5077408;27;45755;-60
2022/12/09 00:31:06;;;;;;;;;49.50;43.00;;;;;5.16;76.42;100065.03;5096255;27;45387;-62
2022/12/09 00:33:32;;;;;;;;;38.50;31.75;;;;;5.08;76.41;100062.72;5094136;27;45295;-61
2022/12/09 00:36:13;;;;;;;;;62.00;43.50;;;;;5.08;76.34;100057.47;5084442;27;45277;-62
2022/12/09 00:38:39;;;;;;;;;53.25;42.00;;;;;5.00;76.36;100059.53;5077066;27;46050;-62
2022/12/09 00:41:05;;;;;;;;;40.75;38.50;;;;;4.99;76.43;100056.06;5090040;27;45846;-59
2022/12/09 00:43:31;;;;;;;;;47.25;38.75;;;;;4.96;76.88;100053.56;5098429;27;45636;-64
2022/12/09 00:45:56;;;;;;;;;50.75;42.75;;;;;5.03;76.79;100054.13;5099245;27;45413;-66
2022/12/09 00:48:22;;;;;;;;;53.00;38.75;;;;;5.06;76.54;100048.72;5098776;27;45320;-63
2022/12/09 00:50:47;;;;;;;;;54.25;38.00;;;;;5.09;76.11;100055.69;5097246;27;45669;-64
2022/12/09 00:53:13;;;;;;;;;48.25;40.50;;;;;5.06;76.18;100058.41;5096430;27;45685;-64
2022/12/09 00:55:38;;;;;;;;;64.25;46.25;;;;;4.94;76.04;100055.38;5099787;27;46624;-63
2022/12/09 00:58:04;;;;;;;;;40.50;34.25;;;;;4.96;76.40;100056.19;5077731;27;45345;-63
2022/12/09 01:00:30;;;;;;;;;56.00;37.75;;;;;4.99;76.63;100042.03;5076903;27;45374;-64
2022/12/09 01:02:55;;;;;;;;;63.00;44.00;;;;;5.05;76.27;100041.75;5077558;27;45229;-65
2022/12/09 01:05:21;;;;;;;;;47.50;41.25;;;;;5.04;76.09;100040.03;5096520;27;45444;-63
2022/12/09 01:07:47;;;;;;;;;47.25;37.50;;;;;5.08;75.78;100036.38;5094922;27;45220;-63
2022/12/09 01:10:12;;;;;;;;;53.00;41.25;;;;;4.97;77.00;100035.97;5094655;27;45345;-63
2022/12/09 01:12:38;;;;;;;;;57.75;42.00;;;;;4.86;77.22;100046.09;5093201;27;45523;-63
2022/12/09 01:15:05;;;;;;;;;45.00;38.50;;;;;4.85;77.00;100039.09;5083252;27;45397;-61
2022/12/09 01:17:31;;;;;;;;;53.50;44.00;;;;;4.89;76.75;100038.06;5096016;27;45303;-61
2022/12/09 01:19:56;;;;;;;;;50.75;42.75;;;;;4.81;77.47;100040.13;5083325;27;45656;-66
2022/12/09 01:22:22;;;;;;;;;40.00;34.50;;;;;4.80;77.71;100027.88;5097625;27;45748;-62
2022/12/09 01:24:48;;;;;;;;;46.75;43.00;;;;;4.78;77.22;100037.63;5079292;27;45364;-62
2022/12/09 01:27:13;;;;;;;;;52.25;37.00;;;;;4.77;77.68;100041.19;5095334;27;45227;-64
2022/12/09 01:29:38;;;;;;;;;49.50;41.75;;;;;4.79;77.79;100034.06;5095166;27;45437;-63
2022/12/09 01:32:04;;;;;;;;;34.00;25.00;;;;;4.74;76.75;100023.75;5096861;27;45575;-61
2022/12/09 01:34:29;;;;;;;;;50.00;39.50;;;;;4.82;77.18;100033.94;5095872;27;45349;-60
2022/12/09 01:36:55;;;;;;;;;60.00;44.75;;;;;4.89;76.12;100040.69;5095004;27;45346;-62
2022/12/09 01:39:20;;;;;;;;;42.00;36.25;;;;;4.82;76.61;100033.94;5059251;27;45575;-62
2022/12/09 01:41:48;;;;;;;;;50.75;38.00;;;;;4.80;76.61;100035.78;5096536;27;45295;-66
2022/12/09 01:44:23;;;;;;;;;36.00;34.50;;;;;4.85;76.11;100037.34;5095540;27;45440;-61
2022/12/09 01:46:53;;;;;;;;;48.00;40.50;;;;;4.80;76.69;100041.06;5079293;27;45560;-64
2022/12/09 01:49:33;;;;;;;;;62.50;45.25;;;;;4.75;76.50;100038.63;5095062;27;45374;-64
2022/12/09 01:52:21;;;;;;;;;42.75;36.75;;;;;4.66;76.80;100045.09;5115160;27;45475;-62
2022/12/09 01:54:50;;;;;;;;;38.50;36.00;;;;;4.70;76.83;100038.81;5090511;27;47974;-64
2022/12/09 01:57:16;;;;;;;;;47.50;40.00;;;;;4.67;77.22;100046.81;5086406;27;45759;-62
2022/12/09 01:59:43;;;;;;;;;46.25;37.50;;;;;4.60;77.24;100050.63;5077228;27;45319;-62
2022/12/09 02:02:14;;;;;;;;;51.00;40.75;;;;;4.58;76.66;100041.09;5095797;27;45577;-60
2022/12/09 02:04:44;;;;;;;;;48.50;38.75;;;;;4.61;76.60;100038.31;5095064;27;46341;-62
2022/12/09 02:07:10;;;;;;;;;42.25;33.50;;;;;4.67;76.79;100038.91;5096205;27;45297;-60
2022/12/09 02:09:37;;;;;;;;;40.75;35.00;;;;;4.66;75.92;100038.97;5094793;27;45337;-63
2022/12/09 02:12:10;;;;;;;;;50.50;32.00;;;;;4.55;76.37;100038.56;5093197;27;45173;-63
2022/12/09 02:14:44;;;;;;;;;46.50;38.25;;;;;4.54;76.86;100029.81;5094776;27;46447;-61
2022/12/09 02:17:40;;;;;;;;;38.50;35.50;;;;;4.57;76.84;100031.47;5087876;27;45402;-60
2022/12/09 02:20:21;;;;;;;;;53.00;36.75;;;;;4.62;76.97;100027.72;5061774;27;45540;-63
2022/12/09 02:22:55;;;;;;;;;58.00;44.25;;;;;4.54;76.90;100034.22;5088975;27;45437;-63
2022/12/09 02:25:20;;;;;;;;;48.25;38.75;;;;;4.51;77.38;100022.03;5098519;27;45658;-60
2022/12/09 02:28:08;;;;;;;;;46.75;40.50;;;;;4.44;77.60;100023.22;5098111;27;45414;-62
2022/12/09 02:30:53;;;;;;;;;42.25;34.50;;;;;4.32;77.30;100024.56;5071485;27;45304;-62
2022/12/09 02:33:32;;;;;;;;;51.25;37.00;;;;;4.27;77.37;100030.91;5079363;28;45467;-63
2022/12/09 02:36:04;;;;;;;;;53.25;38.75;;;;;4.21;77.44;100020.63;5087812;27;45493;-63
2022/12/09 02:38:32;;;;;;;;;40.75;35.75;;;;;4.15;77.58;100019.94;5090080;27;45567;-66
2022/12/09 02:41:02;;;;;;;;;61.00;43.00;;;;;4.11;77.94;100020.97;5112184;27;45309;-62
2022/12/09 02:43:35;;;;;;;;;38.50;34.00;;;;;4.09;78.76;100014.06;5083172;27;45572;-62
2022/12/09 02:46:05;;;;;;;;;31.75;31.25;;;;;4.01;78.03;100016.97;5096952;27;45428;-63
2022/12/09 02:48:38;;;;;;;;;39.75;31.00;;;;;4.06;78.28;100022.09;5119506;27;45333;-63
2022/12/09 02:51:08;;;;;;;;;30.25;23.25;;;;;3.89;77.46;100008.69;5104167;27;45440;-63
2022/12/09 02:53:37;;;;;;;;;33.75;30.00;;;;;3.86;78.12;100014.94;5089761;27;45334;-62
2022/12/09 02:56:05;;;;;;;;;28.25;26.75;;;;;3.87;78.24;100019.28;5098887;27;46170;-60
2022/12/09 02:58:30;;;;;;;;;47.00;33.25;;;;;3.88;77.10;100015.72;5097867;27;45280;-63
2022/12/09 03:00:56;;;;;;;;;34.75;26.75;;;;;3.94;76.91;100012.88;5097439;27;48508;-60
2022/12/09 03:03:22;;;;;;;;;40.00;35.75;;;;;4.03;76.41;100022.16;5079994;27;45470;-63
2022/12/09 03:06:00;;;;;;;;;34.75;30.75;;;;;4.01;76.49;100016.97;5079422;27;45471;-62
2022/12/09 03:08:49;;;;;;;;;37.75;23.75;;;;;4.04;76.64;100018.66;5092601;27;45583;-61
2022/12/09 03:11:17;;;;;;;;;36.75;32.00;;;;;4.03;76.38;100001.97;5096706;27;45438;-63
2022/12/09 03:13:49;;;;;;;;;33.00;29.00;;;;;3.99;76.06;100012.69;5080972;27;45467;-61
2022/12/09 03:16:33;;;;;;;;;29.50;24.25;;;;;3.95;76.35;100019.00;5077846;27;45507;-59
2022/12/09 03:19:11;;;;;;;;;36.00;31.75;;;;;3.98;77.12;100008.34;5097356;27;45480;-59
2022/12/09 03:21:45;;;;;;;;;31.75;22.50;;;;;4.02;75.86;100000.28;5078293;27;45524;-61
2022/12/09 03:24:14;;;;;;;;;31.00;29.75;;;;;4.02;75.57;99991.53;5099687;27;45279;-62
2022/12/09 03:26:42;;;;;;;;;35.75;30.00;;;;;4.12;75.64;100006.91;5101295;27;45267;-60
2022/12/09 03:29:17;;;;;;;;;35.75;27.75;;;;;4.10;76.16;100008.72;5084361;27;45291;-60
2022/12/09 03:31:44;;;;;;;;;27.75;25.00;;;;;3.94;76.49;100002.34;5077850;27;45507;-61
2022/12/09 03:34:15;;;;;;;;;37.00;32.75;;;;;3.91;76.50;99991.97;5077841;27;45281;-60
2022/12/09 03:36:44;;;;;;;;;30.50;24.25;;;;;3.93;76.26;99995.38;5084114;27;45476;-59
2022/12/09 03:39:13;;;;;;;;;33.75;26.00;;;;;3.91;76.51;100002.47;5077664;27;45406;-60
2022/12/09 03:41:45;;;;;;;;;26.75;24.75;;;;;3.99;76.57;99994.28;5097889;27;45306;-60
2022/12/09 03:44:38;;;;;;;;;32.50;28.50;;;;;3.99;76.14;99989.88;5097640;27;45552;-60
2022/12/09 03:47:05;;;;;;;;;41.75;34.75;;;;;4.02;75.83;100000.28;5077391;27;45472;-59
2022/12/09 03:49:31;;;;;;;;;39.75;22.25;;;;;3.87;76.07;99994.75;5079942;27;45512;-60
2022/12/09 03:52:01;;;;;;;;;38.25;29.25;;;;;3.73;76.80;99982.13;5095813;27;45417;-59
2022/12/09 03:54:43;;;;;;;;;32.00;25.00;;;;;3.79;76.64;99987.16;5097339;27;45365;-59
2022/12/09 03:57:15;;;;;;;;;20.00;18.75;;;;;3.86;76.52;99988.63;5096922;27;45751;-59
2022/12/09 03:59:44;;;;;;;;;30.00;26.00;;;;;3.90;76.36;99984.94;5094410;27;45863;-63
2022/12/09 04:02:09;;;;;;;;;30.75;23.75;;;;;3.83;75.95;99986.97;5090063;27;45494;-64
2022/12/09 04:04:38;;;;;;;;;29.75;24.50;;;;;3.81;76.05;99977.44;5079919;27;45310;-64
2022/12/09 04:07:04;;;;;;;;;31.50;28.00;;;;;3.79;76.43;99987.16;5104138;27;45314;-64
2022/12/09 04:09:29;;;;;;;;;28.50;27.75;;;;;3.78;76.40;99985.44;5095258;27;45437;-64
2022/12/09 04:11:54;;;;;;;;;34.50;29.25;;;;;3.81;76.65;99982.69;5078696;27;45418;-61
2022/12/09 04:14:20;;;;;;;;;24.00;22.25;;;;;3.82;76.30;99982.63;5096398;27;45542;-63
2022/12/09 04:16:45;;;;;;;;;39.00;33.25;;;;;3.88;76.13;99986.78;5098356;27;45448;-62
2022/12/09 04:19:11;;;;;;;;;38.75;34.00;;;;;3.89;75.63;99982.38;5087203;27;45355;-61
2022/12/09 04:21:36;;;;;;;;;30.75;27.00;;;;;3.93;75.70;99969.06;5096025;27;45694;-59
2022/12/09 04:24:01;;;;;;;;;32.25;28.50;;;;;3.89;75.77;99969.22;5083597;27;45291;-59
2022/12/09 04:26:27;;;;;;;;;40.50;33.50;;;;;3.84;75.41;99961.53;5081532;27;45410;-58
2022/12/09 04:28:52;;;;;;;;;39.00;31.25;;;;;3.80;75.20;99959.94;5095646;27;46048;-60
2022/12/09 04:31:19;;;;;;;;;44.50;29.75;;;;;3.74;75.58;99962.78;5097005;27;45309;-64
2022/12/09 04:33:45;;;;;;;;;37.75;29.50;;;;;3.73;76.04;99966.34;5097694;27;45352;-61
2022/12/09 04:36:14;;;;;;;;;40.50;31.00;;;;;3.78;76.00;99969.66;5093082;27;45401;-63
2022/12/09 04:38:40;;;;;;;;;36.25;32.00;;;;;3.82;75.35;99961.59;5078065;27;45299;-61
2022/12/09 04:41:06;;;;;;;;;36.75;28.00;;;;;3.77;75.05;99973.19;5094907;27;45396;-63
2022/12/09 04:43:31;;;;;;;;;37.50;27.50;;;;;3.66;75.02;99970.13;5096292;27;45551;-61
2022/12/09 04:46:02;;;;;;;;;25.00;22.50;;;;;3.49;75.54;99953.19;5095788;27;46105;-58
2022/12/09 04:48:28;;;;;;;;;34.75;23.00;;;;;3.53;75.33;99981.09;5078707;27;45659;-62
2022/12/09 04:50:53;;;;;;;;;34.25;27.50;;;;;3.41;75.45;99963.16;5093639;27;45291;-59
2022/12/09 04:53:19;;;;;;;;;32.25;27.00;;;;;3.43;75.28;99958.69;5097288;27;45560;-64
2022/12/09 04:55:44;;;;;;;;;40.75;28.25;;;;;3.50;75.13;99965.41;5095643;27;45785;-63
2022/12/09 04:58:10;;;;;;;;;28.75;26.25;;;;;3.43;74.73;99958.69;5096837;27;45305;-63
2022/12/09 05:00:35;;;;;;;;;28.00;24.00;;;;;3.43;74.74;99970.97;5094971;27;45508;-63
2022/12/09 05:03:01;;;;;;;;;31.50;22.50;;;;;3.35;74.91;99959.88;5097182;27;45256;-63
2022/12/09 05:05:26;;;;;;;;;35.50;31.00;;;;;3.35;75.30;99965.13;5090321;27;45988;-62
2022/12/09 05:07:51;;;;;;;;;34.50;17.00;;;;;3.32;75.28;99960.00;5096926;27;45423;-63
2022/12/09 05:10:17;;;;;;;;;34.25;31.25;;;;;3.33;74.92;99969.59;5089720;27;45568;-63
2022/12/09 05:12:42;;;;;;;;;27.25;24.50;;;;;3.44;74.68;99968.28;5096128;27;45442;-62
2022/12/09 05:15:08;;;;;;;;;33.75;27.00;;;;;3.52;74.24;99963.63;5095517;27;45226;-65
2022/12/09 05:17:33;;;;;;;;;23.75;20.25;;;;;3.54;74.01;99968.81;5108286;27;45214;-62
2022/12/09 05:19:59;;;;;;;;;33.75;29.75;;;;;3.54;73.94;99966.19;5101329;27;45480;-60
2022/12/09 05:22:25;;;;;;;;;33.00;27.00;;;;;3.44;73.66;99957.78;5096880;27;45717;-60
2022/12/09 05:24:50;;;;;;;;;32.50;27.50;;;;;3.51;73.87;99969.75;5096257;27;45338;-61
2022/12/09 05:27:16;;;;;;;;;38.75;23.00;;;;;3.37;73.63;99971.19;5078389;27;45331;-63
2022/12/09 05:29:41;;;;;;;;;37.50;24.00;;;;;3.11;74.21;99961.63;5094581;27;45334;-61
2022/12/09 05:32:07;;;;;;;;;22.00;19.25;;;;;3.16;75.04;99972.84;5095770;27;45767;-64
2022/12/09 05:34:32;;;;;;;;;26.75;20.00;;;;;2.87;74.68;99929.22;5094396;27;45593;-62
2022/12/09 05:36:57;;;;;;;;;32.00;24.75;;;;;3.21;74.41;99973.50;5094899;27;45571;-63
2022/12/09 05:39:23;;;;;;;;;35.75;26.00;;;;;3.30;74.24;99983.72;5096842;27;45400;-59
2022/12/09 05:41:49;;;;;;;;;16.25;16.25;;;;;3.24;73.63;99969.00;5095824;27;45350;-64
2022/12/09 05:44:14;;;;;;;;;28.50;24.50;;;;;3.30;73.23;99978.44;5093824;27;45499;-64
2022/12/09 05:46:40;;;;;;;;;29.25;22.25;;;;;3.30;73.24;99980.22;5095082;27;45354;-61
2022/12/09 05:49:06;;;;;;;;;29.00;22.00;;;;;3.25;73.07;99973.38;5096344;27;45469;-60
2022/12/09 05:51:31;;;;;;;;;27.00;22.50;;;;;3.16;72.85;99972.84;5091571;27;45402;-61
2022/12/09 05:54:01;;;;;;;;;26.00;22.25;;;;;3.05;72.92;99977.59;5086827;27;46268;-58
2022/12/09 05:56:26;;;;;;;;;14.75;11.75;;;;;3.00;73.06;99974.28;5088069;27;45474;-60
2022/12/09 05:58:53;;;;;;;;;22.75;18.00;;;;;3.02;72.83;99988.22;5092977;27;45870;-60
2022/12/09 06:01:20;;;;;;;;;24.75;21.50;;;;;2.93;72.62;99982.38;5106482;27;45423;-61
2022/12/09 06:03:46;;;;;;;;;29.00;21.00;;;;;2.69;72.21;99979.72;5095364;27;45440;-61
2022/12/09 06:06:14;;;;;;;;;32.75;25.00;;;;;2.63;72.57;99999.16;5086617;27;45530;-59
2022/12/09 06:08:42;;;;;;;;;27.00;20.00;;;;;2.64;73.10;99993.88;5099592;27;45309;-63
2022/12/09 06:11:13;;;;;;;;;34.25;23.50;;;;;2.63;72.61;100001.78;5104208;27;45538;-64
2022/12/09 06:13:38;;;;;;;;;24.75;22.50;;;;;2.67;73.10;100006.88;5098246;27;46222;-63
2022/12/09 06:16:05;;;;;;;;;23.25;17.25;;;;;2.70;73.10;100003.28;5093286;27;45244;-62
2022/12/09 06:18:31;;;;;;;;;28.00;23.25;;;;;2.77;72.51;99999.56;5093676;27;45565;-61
2022/12/09 06:20:56;;;;;;;;;24.25;24.25;;;;;2.92;72.09;100020.06;5099786;27;45526;-64
2022/12/09 06:23:22;;;;;;;;;13.00;12.00;;;;;2.95;72.32;100000.69;5096974;27;46328;-63
2022/12/09 06:25:47;;;;;;;;;22.25;19.00;;;;;2.91;71.76;100013.09;5098094;27;45212;-63
2022/12/09 06:28:13;;;;;;;;;34.50;25.50;;;;;2.78;71.75;99995.16;5079686;27;45203;-64
2022/12/09 06:30:39;;;;;;;;;27.25;20.25;;;;;2.76;71.99;100008.34;5089507;27;45322;-64
2022/12/09 06:33:04;;;;;;;;;36.50;24.00;;;;;2.84;71.00;100016.81;5088234;27;46159;-63
2022/12/09 06:35:30;;;;;;;;;56.00;44.50;;;;;2.76;71.56;100008.34;5094566;27;45499;-62
2022/12/09 06:37:55;;;;;;;;;26.00;21.00;;;;;2.80;71.54;100015.22;5098153;27;45598;-61
2022/12/09 06:40:21;;;;;;;;;19.25;16.75;;;;;2.70;71.39;100018.19;5080025;27;45353;-62
2022/12/09 06:42:49;;;;;;;;;25.00;18.00;;;;;2.58;71.06;99998.44;5083923;27;46084;-62
2022/12/09 06:45:15;;;;;;;;;46.50;40.00;;;;;2.59;71.59;100010.66;5098794;27;45318;-63
2022/12/09 06:47:41;;;;;;;;;22.25;19.25;;;;;2.68;71.44;100020.88;5102718;27;45246;-62
2022/12/09 06:50:08;;;;;;;;;28.50;27.50;;;;;2.65;71.68;100011.34;5103367;27;45481;-61
2022/12/09 06:52:34;;;;;;;;;27.75;20.50;;;;;2.68;71.24;100007.75;5095269;27;45497;-64
2022/12/09 06:54:59;;;;;;;;;29.25;23.25;;;;;2.52;71.66;99998.66;5088298;27;45415;-64
2022/12/09 06:57:25;;;;;;;;;21.25;19.00;;;;;2.46;72.42;100004.94;5092893;27;45276;-65
2022/12/09 06:59:51;;;;;;;;;29.75;19.00;;;;;2.55;72.23;100003.81;5077349;27;45810;-61
2022/12/09 07:02:16;;;;;;;;;21.00;18.00;;;;;2.53;72.11;99995.97;5095590;27;46409;-69
2022/12/09 07:04:41;;;;;;;;;24.75;18.00;;;;;2.73;71.69;100008.44;5098164;27;45518;-66
2022/12/09 07:07:09;;;;;;;;;21.00;18.25;;;;;2.76;71.19;100010.97;5097456;27;45415;-61
2022/12/09 07:09:34;;;;;;;;;20.00;18.00;;;;;2.82;70.93;100013.38;5096817;27;45522;-62
2022/12/09 07:12:00;;;;;;;;;15.75;15.75;;;;;2.67;70.43;100009.50;5084008;27;45315;-59
2022/12/09 07:14:25;;;;;;;;;22.00;18.75;;;;;2.66;70.79;100017.44;5096486;27;45361;-59
2022/12/09 07:16:51;;;;;;;;;23.00;21.25;;;;;2.58;70.87;100007.19;5098051;27;45212;-61
2022/12/09 07:19:19;;;;;;;;;24.75;20.25;;;;;2.57;70.90;100013.34;5098776;27;45568;-60
2022/12/09 07:21:44;;;;;;;;;19.00;15.50;;;;;2.44;70.94;100012.03;5098951;27;45360;-60
2022/12/09 07:24:11;;;;;;;;;30.00;23.50;;;;;2.49;71.47;100030.25;5097669;27;45380;-63
2022/12/09 07:26:39;;;;;;;;;20.75;19.00;;;;;2.57;71.29;100029.09;5095279;27;45836;-63
2022/12/09 07:29:06;;;;;;;;;25.00;20.00;;;;;2.54;70.92;100033.59;5093750;27;45456;-63
2022/12/09 07:31:33;;;;;;;;;30.50;24.00;;;;;2.51;70.73;100023.19;5085599;27;45542;-60
2022/12/09 07:33:59;;;;;;;;;26.75;22.50;;;;;2.54;70.25;100020.47;5095018;27;45519;-64
2022/12/09 07:36:26;;;;;;;;;28.25;25.00;;;;;2.46;71.08;100025.09;5094051;27;45503;-61
2022/12/09 07:39:13;;;;;;;;;23.00;20.50;;;;;2.40;70.45;100009.56;5088705;27;45955;-62
2022/12/09 07:41:39;;;;;;;;;24.75;21.50;;;;;2.52;70.80;100030.16;5096532;27;45310;-61
2022/12/09 07:44:04;;;;;;;;;25.75;19.25;;;;;2.52;70.42;100027.53;5090879;27;45422;-63
2022/12/09 07:46:29;;;;;;;;;28.75;21.25;;;;;2.53;70.75;100026.63;5096961;27;45498;-66
2022/12/09 07:48:55;;;;;;;;;26.25;22.00;;;;;2.45;70.13;100034.72;5087421;27;45304;-60
2022/12/09 07:51:23;;;;;;;;;22.50;20.00;;;;;2.45;70.69;100034.72;5096803;27;46342;-64
2022/12/09 07:53:49;;;;;;;;;24.00;14.50;;;;;2.39;70.95;100039.31;5082396;27;46091;-60
2022/12/09 07:56:16;;;;;;;;;21.00;18.50;;;;;2.46;70.87;100051.34;5097788;27;45306;-61
2022/12/09 07:58:43;;;;;;;;;22.75;18.75;;;;;2.32;71.20;100025.53;5097115;27;45600;-63
2022/12/09 08:01:17;;;;;;;;;28.00;19.00;;;;;2.57;70.86;100051.84;5096918;27;46697;-60
2022/12/09 08:03:43;;;;;;;;;23.50;23.50;;;;;2.56;70.63;100032.63;5097666;27;45465;-62
2022/12/09 08:06:13;;;;;;;;;34.75;28.00;;;;;2.67;70.47;100051.53;5094204;27;45335;-64
2022/12/09 08:08:39;;;;;;;;;17.50;14.75;;;;;2.69;70.57;100048.84;5096149;27;45366;-62
2022/12/09 08:11:22;;;;;;;;;26.75;23.25;;;;;2.73;70.84;100045.19;5077122;28;46198;-63
2022/12/09 08:13:48;;;;;;;;;30.25;22.25;;;;;2.76;70.28;100039.88;5094491;27;45325;-64
2022/12/09 08:16:16;;;;;;;;;27.00;23.25;;;;;2.79;70.25;100046.78;5077144;28;45472;-65
2022/12/09 08:18:42;;;;;;;;;18.25;15.25;;;;;2.66;70.83;100038.44;5088915;27;45315;-66
2022/12/09 08:21:13;;;;;;;;;33.50;27.75;;;;;2.57;70.53;100036.97;5077375;27;46204;-64
2022/12/09 08:23:39;;;;;;;;;30.50;22.25;;;;;2.61;71.02;100040.38;5088020;27;45417;-63
2022/12/09 08:26:06;;;;;;;;;32.50;27.50;;;;;2.65;71.07;100047.22;5099075;27;45458;-64
2022/12/09 08:28:31;;;;;;;;;23.50;20.25;;;;;2.74;71.09;100043.47;5095046;27;45633;-63
2022/12/09 08:30:57;;;;;;;;;30.25;22.00;;;;;2.78;70.83;100038.03;5097256;27;45445;-67
2022/12/09 08:33:23;;;;;;;;;23.00;21.25;;;;;2.87;70.67;100031.63;5059754;27;45449;-65
2022/12/09 08:35:49;;;;;;;;;30.75;27.75;;;;;2.87;70.16;100036.88;5094823;27;45452;-65
2022/12/09 08:38:15;;;;;;;;;42.25;35.00;;;;;2.90;70.66;100035.00;5096406;27;45737;-66
2022/12/09 08:40:40;;;;;;;;;41.00;35.50;;;;;2.93;71.12;100037.53;5080941;27;46554;-65
2022/12/09 08:43:07;;;;;;;;;37.50;29.00;;;;;2.99;71.24;100035.59;5067219;27;45621;-63
2022/12/09 08:45:39;;;;;;;;;28.25;20.50;;;;;3.04;70.55;100045.06;5091648;27;45426;-66
2022/12/09 08:48:05;;;;;;;;;22.50;20.25;;;;;2.88;70.64;100028.97;5096472;27;45457;-64
2022/12/09 08:50:31;;;;;;;;;33.00;29.50;;;;;2.82;70.97;100051.91;5086634;27;46580;-65
2022/12/09 08:52:56;;;;;;;;;47.50;40.50;;;;;2.67;71.53;100046.25;5092339;27;45399;-64
2022/12/09 08:55:25;;;;;;;;;37.00;31.00;;;;;2.69;71.95;100058.47;5093396;27;45505;-64
2022/12/09 08:57:51;;;;;;;;;37.75;33.25;;;;;2.77;71.65;100065.22;5077517;27;45540;-65
2022/12/09 09:00:18;;;;;;;;;36.50;29.00;;;;;2.86;71.51;100059.63;5074895;27;45487;-65
2022/12/09 09:02:46;;;;;;;;;40.50;31.25;;;;;2.89;71.09;100058.69;5114110;27;45396;-66
2022/12/09 09:05:12;;;;;;;;;47.75;32.50;;;;;2.72;71.14;100037.38;5097643;27;45749;-60
2022/12/09 09:07:38;;;;;;;;;34.25;30.25;;;;;2.71;71.36;100056.66;5069871;27;45410;-61
2022/12/09 09:10:04;;;;;;;;;25.50;23.00;;;;;2.68;71.88;100041.88;5068742;27;46134;-64
2022/12/09 09:12:29;;;;;;;;;32.00;27.25;;;;;2.76;71.38;100060.00;5092313;27;45468;-64
2022/12/09 09:14:55;;;;;;;;;35.50;28.50;;;;;2.83;71.45;100062.38;5088170;27;45723;-65
2022/12/09 09:17:21;;;;;;;;;35.75;28.75;;;;;2.81;71.14;100068.59;5082548;27;45485;-60
2022/12/09 09:19:47;;;;;;;;;40.75;31.00;;;;;2.79;71.49;100042.38;5091186;27;45484;-61
2022/12/09 09:22:13;;;;;;;;;34.75;30.25;;;;;2.95;71.36;100067.22;5074250;27;45604;-63
2022/12/09 09:24:38;;;;;;;;;34.00;31.75;;;;;3.02;71.45;100067.91;5096337;27;45445;-63
2022/12/09 09:27:03;;;;;;;;;33.50;30.50;;;;;3.05;70.90;100061.66;5097161;27;45302;-66
2022/12/09 09:29:29;;;;;;;;;33.75;32.00;;;;;3.05;70.49;100045.91;5089915;27;45599;-61
2022/12/09 09:31:55;;;;;;;;;44.25;36.50;;;;;3.18;71.08;100042.81;5097809;27;45398;-61
2022/12/09 09:34:22;;;;;;;;;34.00;31.25;;;;;3.34;70.21;100052.78;5079321;27;45573;-63
2022/12/09 09:36:48;;;;;;;;;39.25;29.25;;;;;3.22;69.86;100027.78;5096989;27;46030;-60
2022/12/09 09:39:13;;;;;;;;;37.25;28.00;;;;;3.34;69.66;100048.38;5097025;27;46227;-58
2022/12/09 09:41:56;;;;;;;;;29.25;29.25;;;;;3.43;69.62;100058.59;5077393;27;45476;-60
2022/12/09 09:44:24;;;;;;;;;33.00;30.75;;;;;3.52;68.93;100060.88;5082543;27;45505;-61
2022/12/09 09:46:51;;;;;;;;;43.50;33.75;;;;;3.36;68.97;100048.31;5080493;27;45526;-59
2022/12/09 09:49:25;;;;;;;;;45.25;39.50;;;;;3.36;70.07;100062.31;5087174;27;45544;-63
2022/12/09 09:51:51;;;;;;;;;35.50;35.50;;;;;3.41;69.40;100055.16;5100793;27;44811;-64
2022/12/09 09:54:17;;;;;;;;;43.50;38.75;;;;;3.44;69.82;100056.81;5092004;27;45392;-61
2022/12/09 09:57:07;;;;;;;;;49.00;37.50;;;;;3.48;69.52;100064.53;5097646;27;45426;-62
2022/12/09 10:00:04;;;;;;;;;38.25;34.25;;;;;3.47;69.40;100060.19;5047610;28;46193;-61
2022/12/09 10:02:57;;;;;;;;;32.25;29.75;;;;;3.51;69.26;100059.16;5098587;27;45847;-61
2022/12/09 10:05:53;;;;;;;;;32.25;27.00;;;;;3.52;69.52;100053.00;5084870;27;45442;-67
2022/12/09 10:08:28;;;;;;;;;28.50;26.50;;;;;3.65;68.51;100063.09;5067104;27;45530;-63
2022/12/09 10:11:05;;;;;;;;;44.00;36.75;;;;;3.70;68.38;100054.09;5100432;27;46076;-61
2022/12/09 10:14:12;;;;;;;;;30.00;30.00;;;;;3.76;68.98;100053.00;5075885;27;45518;-62
2022/12/09 10:16:52;;;;;;;;;51.50;38.25;;;;;3.79;68.03;100029.25;5052816;27;45542;-61
2022/12/09 10:19:35;;;;;;;;;45.00;38.25;;;;;3.97;67.39;100039.06;5094064;27;45434;-64
2022/12/09 10:22:12;;;;;;;;;38.50;31.25;;;;;3.84;67.83;100043.94;5080690;27;45442;-61
2022/12/09 10:24:46;;;;;;;;;43.50;35.75;;;;;3.76;68.33;100035.44;5097586;27;46544;-62
2022/12/09 10:27:23;;;;;;;;;63.25;43.00;;;;;3.84;68.32;100027.28;5094344;27;45228;-59
2022/12/09 10:29:57;;;;;;;;;49.00;41.50;;;;;3.89;68.29;100035.00;5083879;27;45555;-60
2022/12/09 10:32:26;;;;;;;;;39.75;36.25;;;;;3.73;68.44;100030.31;5081015;27;45280;-58
2022/12/09 10:34:52;;;;;;;;;43.50;34.25;;;;;3.65;69.07;100018.38;5099487;27;45449;-59
2022/12/09 10:37:23;;;;;;;;;47.00;37.25;;;;;3.68;69.64;100023.53;5099927;27;45325;-59
2022/12/09 10:39:54;;;;;;;;;45.75;36.25;;;;;3.50;69.07;100014.50;5084456;27;45297;-60
2022/12/09 10:45:28;;;;;;;;;40.50;37.75;;;;;3.83;69.20;100028.22;5017430;28;45380;-60
2022/12/09 10:47:54;;;;;;;;;42.00;31.00;;;;;3.89;69.20;100025.31;5012670;28;45565;-62
2022/12/09 10:50:28;;;;;;;;;39.50;37.25;;;;;4.10;67.68;100023.66;5062037;27;45320;-64
2022/12/09 10:52:54;;;;;;;;;46.25;36.00;;;;;4.01;67.37;100019.59;5098857;27;46453;-63
2022/12/09 10:55:34;;;;;;;;;32.25;26.25;;;;;3.87;68.38;100019.28;5118411;27;45353;-62
2022/12/09 10:58:21;;;;;;;;;33.50;26.50;;;;;3.98;68.54;100018.88;5112151;27;45420;-62
2022/12/09 11:01:03;;;;;;;;;48.00;36.50;;;;;4.05;67.84;100018.59;5072611;27;45846;-64
2022/12/09 11:03:36;;;;;;;;;40.00;34.75;;;;;4.08;68.47;100015.84;5102492;27;45468;-62
2022/12/09 11:06:17;;;;;;;;;39.00;36.75;;;;;3.99;67.20;100015.31;5100122;27;45449;-63
2022/12/09 11:08:59;;;;;;;;;33.75;33.75;;;;;4.04;68.53;100005.50;5100413;27;45401;-64
2022/12/09 11:11:42;;;;;;;;;38.00;32.25;;;;;3.82;68.12;100003.69;5097163;27;45356;-61
2022/12/09 11:14:25;;;;;;;;;33.25;29.75;;;;;3.78;67.89;99998.59;5079052;27;45543;-65
2022/12/09 11:16:53;;;;;;;;;33.25;29.25;;;;;3.87;68.76;99997.38;5079370;28;45433;-59
2022/12/09 11:19:38;;;;;;;;;37.25;31.75;;;;;4.10;68.87;99992.09;5092667;27;45322;-62
2022/12/09 11:22:37;;;;;;;;;27.75;26.00;;;;;4.21;66.96;99991.69;5098112;27;45406;-61
2022/12/09 11:25:12;;;;;;;;;34.50;29.00;;;;;4.30;67.03;99993.94;5080126;27;47099;-60
2022/12/09 11:27:40;;;;;;;;;35.75;29.75;;;;;4.38;66.05;100002.38;5098036;27;45349;-59
2022/12/09 11:30:05;;;;;;;;;32.25;26.00;;;;;4.43;65.83;99993.41;5091350;27;45383;-59
2022/12/09 11:32:31;;;;;;;;;37.25;24.50;;;;;4.21;66.13;99989.91;5098259;27;45410;-62